Keizer, OR

11:39 AM PST on December 20, 2014 (GMT -0800)
McMinnville Municipal | Change Station
CLOSE
Current Station
Airport
Location: McMinnville,
Elevation: 157 ft
Nearby Weather Stations
Active Advisory: Areal Flood Watch

Elev 157 ft 45.19 °N, 123.14 °W | Updated 11 minutes ago

Rain
Rain
51 °F
Feels Like 51 °F
N
16
Wind Variable Wind from South

Today
High -- | Low -- °F
--% Chance of Precip.
Yesterday
High -- | Low -- °F
Precip. -- in
7:46 AM 4:32 PM
Waning Crescent, 2% visible
Pressure 29.69 in
Visibility 3.0 miles
Clouds Few 1500 ft
Mostly Cloudy 5000 ft
Overcast 7000 ft
Dew Point 48 °F
Humidity 89%
Rainfall 0.69 in
Snow Depth Not available.
UV 0 out of 12
Pollen .50 out of 12
Air Quality Not available.
Flu Activity Not available.
SPECI KMMV 201928Z AUTO 17014KT 3SM RA BR FEW015 BKN050 OVC070 11/09 A2969 RMK AO2 P0016 T01060089 $

More Conditions Fewer Conditions

Pressure 29.69 in
Visibility 3.0 miles
Clouds Few 1500 ft
Mostly Cloudy 5000 ft
Overcast 7000 ft
Dew Point 48 °F
Humidity 89%
Rainfall 0.69 in
Snow Depth Not available.
UV 0 out of 12
Pollen .50 out of 12
Air Quality Not available.
Flu Activity Not available.
SPECI KMMV 201928Z AUTO 17014KT 3SM RA BR FEW015 BKN050 OVC070 11/09 A2969 RMK AO2 P0016 T01060089 $

More Conditions Fewer Conditions

10-Day Weather Forecast

Almanac

Astronomy

Dec. 20, 2014 Rise Set
Actual Time
Civil Twilight
Nautical Twilight
Astronomical Twilight
Moon
Length of Visible Light
Length of Day
Tomorrow will be .
, % of the Moon is Illuminated

Today's Extremes

State Highs State Lows

Community

WunderPhotos

Upload Photos

1,779,257 photos uploaded!

WunderBlogs® & News

Nearby

Air Quality

  Air Quality AQ Index Pollutant
Not available.

Snow Depth

Station Depth Elevation

Earthquake Activity

City Distance Mag. Time & Date
Minimum magnitude displayed is 2.5.

Coastal Water Temperatures

Place Temperature

Nearby Weather Stations